createdAt,value
2023-03-12T00:00:21.719Z,10.90
2023-03-12T00:02:49.095Z,12.90
2023-03-12T00:05:16.561Z,10.60
2023-03-12T00:07:43.912Z,10.37
2023-03-12T00:10:11.780Z,10.70
2023-03-12T00:12:39.324Z,11.80
2023-03-12T00:15:07.668Z,11.70
2023-03-12T00:17:34.586Z,12.43
2023-03-12T00:20:01.768Z,12.77
2023-03-12T00:22:28.779Z,14.97
2023-03-12T00:24:57.153Z,16.77
2023-03-12T00:27:25.709Z,16.20
2023-03-12T00:29:52.731Z,13.43
2023-03-12T00:32:20.705Z,14.20
2023-03-12T00:34:52.225Z,13.10
2023-03-12T00:37:19.733Z,12.30
2023-03-12T00:39:46.739Z,12.77
2023-03-12T00:42:13.768Z,12.77
2023-03-12T00:44:40.864Z,10.20
2023-03-12T00:47:07.879Z,12.10
2023-03-12T00:49:34.849Z,13.00
2023-03-12T00:52:02.384Z,15.27
2023-03-12T00:54:29.317Z,13.53
2023-03-12T00:56:56.264Z,12.17
2023-03-12T00:59:23.290Z,11.53
2023-03-12T01:01:50.799Z,11.17
2023-03-12T01:04:18.231Z,9.53
2023-03-12T01:06:45.735Z,10.47
2023-03-12T01:09:13.166Z,9.03
2023-03-12T01:11:40.583Z,8.23
2023-03-12T01:14:09.114Z,8.00
2023-03-12T01:16:36.475Z,10.83
2023-03-12T01:19:04.513Z,10.77
2023-03-12T01:21:32.232Z,11.30
2023-03-12T01:23:59.825Z,12.03
2023-03-12T01:26:27.709Z,11.80
2023-03-12T01:28:55.074Z,9.97
2023-03-12T01:31:22.564Z,9.10
2023-03-12T01:33:51.434Z,9.53
2023-03-12T01:36:28.362Z,8.57
2023-03-12T01:38:58.162Z,8.63
2023-03-12T01:41:27.497Z,8.60
2023-03-12T01:43:54.992Z,7.60
2023-03-12T01:46:30.154Z,7.67
2023-03-12T01:49:09.444Z,7.00
2023-03-12T01:51:43.354Z,8.80
2023-03-12T01:54:26.521Z,8.40
2023-03-12T01:56:54.966Z,7.20
2023-03-12T01:59:29.619Z,7.27
2023-03-12T02:01:57.091Z,7.37
2023-03-12T02:04:25.787Z,7.47
2023-03-12T02:07:14.698Z,7.57
2023-03-12T02:09:48.614Z,7.90
2023-03-12T02:12:17.481Z,7.00
2023-03-12T02:14:44.899Z,7.70
2023-03-12T02:17:12.490Z,7.63
2023-03-12T02:20:09.184Z,6.60
2023-03-12T02:22:37.720Z,8.30
2023-03-12T02:25:18.099Z,7.23
2023-03-12T02:27:46.167Z,5.70
2023-03-12T02:30:16.093Z,17.77
2023-03-12T02:32:44.967Z,13.43
2023-03-12T02:35:14.214Z,12.23
2023-03-12T02:37:52.333Z,12.30
2023-03-12T02:40:42.360Z,11.07
2023-03-12T02:43:11.175Z,9.30
2023-03-12T02:45:39.124Z,8.67
2023-03-12T02:48:09.424Z,8.00
2023-03-12T02:50:36.786Z,8.30
2023-03-12T02:53:04.833Z,7.40
2023-03-12T02:55:32.429Z,6.97
2023-03-12T02:57:59.788Z,8.53
2023-03-12T03:00:27.428Z,7.23
2023-03-12T03:02:55.628Z,8.63
2023-03-12T03:05:23.165Z,6.00
2023-03-12T03:07:51.265Z,6.70
2023-03-12T03:10:18.895Z,6.93
2023-03-12T03:12:47.000Z,7.17
2023-03-12T03:15:14.689Z,6.80
2023-03-12T03:17:42.124Z,10.10
2023-03-12T03:20:11.409Z,11.70
2023-03-12T03:22:39.476Z,10.93
2023-03-12T03:25:09.847Z,9.10
2023-03-12T03:27:37.327Z,8.40
2023-03-12T03:30:06.055Z,7.90
2023-03-12T03:32:36.977Z,9.20
2023-03-12T03:35:04.629Z,8.27
2023-03-12T03:37:32.050Z,7.27
2023-03-12T03:39:59.620Z,7.97
2023-03-12T03:42:27.073Z,7.97
2023-03-12T03:44:54.454Z,7.63
2023-03-12T03:47:21.971Z,6.83
2023-03-12T03:49:49.377Z,6.70
2023-03-12T03:52:16.840Z,6.13
2023-03-12T03:54:44.986Z,6.90
2023-03-12T03:57:12.366Z,7.40
2023-03-12T03:59:40.080Z,7.20
2023-03-12T04:02:08.299Z,7.90
2023-03-12T04:04:38.584Z,7.43
2023-03-12T04:07:07.101Z,6.23
2023-03-12T04:09:34.558Z,6.60
2023-03-12T04:12:02.338Z,7.77
2023-03-12T04:14:30.811Z,7.57
2023-03-12T04:16:58.436Z,7.70
2023-03-12T04:19:25.847Z,7.10
2023-03-12T04:21:54.043Z,6.17
2023-03-12T04:24:21.448Z,5.67
2023-03-12T04:26:49.458Z,5.00
2023-03-12T04:29:17.380Z,6.33
2023-03-12T04:31:45.411Z,5.03
2023-03-12T04:34:14.592Z,5.70
2023-03-12T04:36:43.722Z,5.80
2023-03-12T04:39:11.213Z,5.70
2023-03-12T04:41:39.213Z,8.03
2023-03-12T04:44:12.766Z,7.63
2023-03-12T04:46:41.299Z,6.63
2023-03-12T04:49:09.693Z,5.73
2023-03-12T04:51:38.647Z,6.73
2023-03-12T04:54:06.667Z,6.20
2023-03-12T04:56:35.232Z,6.83
2023-03-12T04:59:03.098Z,6.33
2023-03-12T05:01:33.499Z,6.20
2023-03-12T05:04:04.219Z,6.00
2023-03-12T05:06:31.603Z,6.50
2023-03-12T05:08:59.042Z,5.70
2023-03-12T05:11:26.799Z,5.43
2023-03-12T05:13:54.606Z,5.63
2023-03-12T05:16:23.725Z,5.07
2023-03-12T05:18:51.391Z,5.77
2023-03-12T05:21:20.593Z,5.50
2023-03-12T05:23:51.030Z,6.40
2023-03-12T05:26:36.493Z,6.27
2023-03-12T05:29:09.967Z,5.40
2023-03-12T05:31:38.662Z,5.40
2023-03-12T05:34:07.514Z,5.47
2023-03-12T05:36:39.091Z,4.40
2023-03-12T05:39:06.800Z,4.43
2023-03-12T05:41:35.575Z,5.23
2023-03-12T05:44:15.973Z,4.90
2023-03-12T05:46:45.627Z,5.27
2023-03-12T05:49:13.375Z,5.77
2023-03-12T05:51:40.435Z,5.53
2023-03-12T05:54:08.775Z,5.97
2023-03-12T05:56:39.617Z,5.80
2023-03-12T05:59:08.002Z,5.23
2023-03-12T06:01:35.133Z,4.27
2023-03-12T06:04:04.470Z,5.27
2023-03-12T06:06:33.358Z,5.03
2023-03-12T06:09:06.001Z,4.90
2023-03-12T06:11:34.678Z,5.43
2023-03-12T06:14:02.100Z,4.50
2023-03-12T06:16:29.676Z,5.50
2023-03-12T06:19:00.043Z,4.53
2023-03-12T06:21:31.986Z,5.90
2023-03-12T06:24:00.408Z,4.50
2023-03-12T06:26:32.361Z,5.93
2023-03-12T06:28:59.301Z,5.10
2023-03-12T06:31:26.446Z,6.13
2023-03-12T06:33:53.780Z,5.03
2023-03-12T06:36:21.447Z,6.30
2023-03-12T06:38:48.366Z,4.57
2023-03-12T06:41:18.802Z,4.37
2023-03-12T06:43:46.013Z,5.30
2023-03-12T06:46:17.121Z,4.77
2023-03-12T06:48:46.253Z,4.93
2023-03-12T06:51:16.185Z,6.20
2023-03-12T06:53:44.222Z,5.03
2023-03-12T06:56:12.360Z,4.03
2023-03-12T06:58:39.463Z,5.70
2023-03-12T07:01:07.235Z,5.07
2023-03-12T07:03:34.705Z,4.27
2023-03-12T07:06:01.705Z,5.90
2023-03-12T07:08:32.471Z,6.13
2023-03-12T07:11:03.361Z,4.53
2023-03-12T07:13:30.936Z,4.90
2023-03-12T07:15:57.971Z,5.67
2023-03-12T07:18:25.029Z,4.80
2023-03-12T07:20:53.057Z,4.30
2023-03-12T07:23:20.516Z,4.40
2023-03-12T07:25:48.042Z,4.67
2023-03-12T07:28:15.527Z,4.47
2023-03-12T07:30:42.556Z,4.13
2023-03-12T07:33:13.468Z,4.40
2023-03-12T07:35:40.736Z,4.70
2023-03-12T07:38:08.826Z,5.93
2023-03-12T07:40:36.911Z,4.90
2023-03-12T07:43:06.939Z,4.40
2023-03-12T07:45:36.013Z,4.90
2023-03-12T07:48:03.052Z,4.70
2023-03-12T07:50:30.231Z,4.60
2023-03-12T07:52:57.229Z,5.07
2023-03-12T07:55:24.600Z,5.37
2023-03-12T07:57:51.846Z,5.00
2023-03-12T08:00:19.240Z,6.20
2023-03-12T08:02:46.450Z,5.50
2023-03-12T08:05:13.561Z,7.33
2023-03-12T08:07:40.538Z,6.27
2023-03-12T08:10:09.685Z,6.27
2023-03-12T08:12:39.824Z,5.80
2023-03-12T08:15:08.931Z,5.87
2023-03-12T08:17:35.893Z,7.33
2023-03-12T08:20:02.925Z,8.63
2023-03-12T08:22:29.915Z,7.03
2023-03-12T08:24:56.838Z,4.17
2023-03-12T08:27:24.456Z,10.73
2023-03-12T08:29:51.464Z,4.47
2023-03-12T08:32:18.479Z,4.70
2023-03-12T08:34:45.533Z,5.17
2023-03-12T08:37:12.625Z,6.97
2023-03-12T08:39:39.583Z,6.83
2023-03-12T08:42:07.799Z,10.00
2023-03-12T08:44:35.143Z,27.87
2023-03-12T08:47:02.065Z,8.00
2023-03-12T08:49:28.984Z,6.73
2023-03-12T08:51:56.002Z,7.20
2023-03-12T08:54:23.033Z,4.90
2023-03-12T08:56:52.304Z,8.00
2023-03-12T08:59:20.699Z,5.57
2023-03-12T09:01:48.174Z,7.97
2023-03-12T09:04:15.733Z,6.73
2023-03-12T09:06:43.245Z,5.80
2023-03-12T09:09:10.316Z,7.23
2023-03-12T09:11:42.384Z,7.00
2023-03-12T09:16:58.127Z,6.50
2023-03-12T09:19:25.331Z,6.23
2023-03-12T09:21:52.281Z,5.87
2023-03-12T09:24:19.333Z,6.50
2023-03-12T09:26:46.287Z,6.80
2023-03-12T09:29:13.355Z,8.40
2023-03-12T09:31:40.243Z,6.90
2023-03-12T09:34:07.146Z,7.87
2023-03-12T09:36:34.244Z,6.10
2023-03-12T09:39:02.406Z,7.60
2023-03-12T09:41:38.916Z,8.47
2023-03-12T09:44:22.674Z,6.60
2023-03-12T09:47:23.821Z,8.63
2023-03-12T09:49:58.873Z,6.33
2023-03-12T09:52:32.143Z,7.50
2023-03-12T09:55:14.923Z,7.70
2023-03-12T09:57:44.105Z,7.27
2023-03-12T10:00:21.006Z,7.17
2023-03-12T10:03:26.886Z,7.17
2023-03-12T10:06:20.355Z,8.53
2023-03-12T10:09:24.921Z,8.80
2023-03-12T10:12:19.475Z,8.20
2023-03-12T10:15:11.736Z,8.43
2023-03-12T10:17:50.643Z,7.20
2023-03-12T10:20:57.642Z,6.10
2023-03-12T10:23:42.609Z,7.63
2023-03-12T10:26:26.339Z,7.50
2023-03-12T10:29:00.772Z,6.50
2023-03-12T10:31:55.387Z,7.67
2023-03-12T10:35:15.018Z,8.23
2023-03-12T10:37:55.579Z,7.80
2023-03-12T10:40:29.576Z,7.93
2023-03-12T10:42:57.130Z,8.53
2023-03-12T10:45:49.968Z,8.20
2023-03-12T10:48:24.032Z,8.10
2023-03-12T10:51:06.097Z,7.20
2023-03-12T10:53:44.630Z,7.00
2023-03-12T10:56:15.538Z,7.33
2023-03-12T10:58:48.947Z,7.80
2023-03-12T11:01:17.384Z,7.20
2023-03-12T11:03:45.886Z,9.00
2023-03-12T11:06:27.499Z,6.47
2023-03-12T11:09:16.553Z,8.40
2023-03-12T11:11:49.449Z,7.37
2023-03-12T11:14:21.875Z,7.83
2023-03-12T11:16:50.892Z,7.50
2023-03-12T11:19:33.852Z,8.93
2023-03-12T11:22:08.765Z,7.90
2023-03-12T11:24:35.986Z,7.50
2023-03-12T11:27:27.029Z,8.10
2023-03-12T11:29:55.111Z,8.03
2023-03-12T11:32:43.828Z,7.30
2023-03-12T11:35:13.752Z,8.00
2023-03-12T11:38:18.859Z,8.90
2023-03-12T11:41:16.321Z,7.87
2023-03-12T11:44:04.488Z,8.40
2023-03-12T11:46:54.484Z,7.90
2023-03-12T11:49:56.693Z,7.27
2023-03-12T11:53:27.782Z,8.00
2023-03-12T11:56:18.894Z,8.97
2023-03-12T11:59:43.627Z,9.17
2023-03-12T12:02:22.652Z,9.10
2023-03-12T12:05:01.536Z,11.57
2023-03-12T12:07:52.847Z,10.10
2023-03-12T12:10:44.174Z,11.30
2023-03-12T12:13:32.458Z,13.10
2023-03-12T12:16:24.017Z,10.17
2023-03-12T12:19:18.224Z,9.20
2023-03-12T12:22:25.599Z,13.23
2023-03-12T12:25:42.590Z,20.03
2023-03-12T12:28:12.287Z,22.90
2023-03-12T12:30:48.311Z,14.40
2023-03-12T12:33:52.226Z,13.63
2023-03-12T12:36:19.438Z,13.90
2023-03-12T12:38:54.117Z,10.73
2023-03-12T12:41:25.945Z,13.00
2023-03-12T12:44:15.079Z,12.60
2023-03-12T12:47:05.289Z,10.03
2023-03-12T12:49:44.369Z,10.67
2023-03-12T12:52:20.182Z,9.40
2023-03-12T12:54:59.356Z,8.67
2023-03-12T12:57:54.962Z,9.83
2023-03-12T13:01:04.328Z,8.23
2023-03-12T13:03:31.702Z,8.50
2023-03-12T13:06:04.993Z,8.83
2023-03-12T13:08:43.072Z,8.30
2023-03-12T13:11:19.771Z,7.80
2023-03-12T13:14:02.788Z,8.93
2023-03-12T13:16:44.952Z,7.80
2023-03-12T13:19:14.898Z,8.40
2023-03-12T13:22:21.467Z,8.20
2023-03-12T13:25:22.977Z,7.50
2023-03-12T13:28:03.386Z,8.47
2023-03-12T13:30:33.359Z,8.50
2023-03-12T13:33:02.836Z,7.57
2023-03-12T13:35:33.191Z,7.23
2023-03-12T13:38:04.804Z,7.53
2023-03-12T13:40:31.661Z,7.80
2023-03-12T13:43:09.952Z,6.53
2023-03-12T13:46:23.707Z,4.43
2023-03-12T13:48:51.187Z,4.30
2023-03-12T13:51:23.740Z,3.47
2023-03-12T13:53:59.036Z,2.43
2023-03-12T13:56:34.024Z,1.97
2023-03-12T13:59:07.515Z,2.73
2023-03-12T14:01:46.139Z,1.83
2023-03-12T14:04:43.488Z,2.30
2023-03-12T14:07:55.518Z,2.17
2023-03-12T14:10:38.258Z,1.70
2023-03-12T14:13:34.413Z,1.70
2023-03-12T14:16:29.396Z,1.83
2023-03-12T14:18:56.803Z,10.33
2023-03-12T14:21:30.293Z,2.80
2023-03-12T14:23:59.514Z,4.67
2023-03-12T14:26:32.196Z,2.90
2023-03-12T14:29:06.611Z,4.30
2023-03-12T14:31:35.522Z,2.30
2023-03-12T14:34:20.705Z,1.90
2023-03-12T14:36:58.602Z,1.87
2023-03-12T14:39:30.477Z,2.40
2023-03-12T14:42:07.855Z,2.30
2023-03-12T14:44:39.637Z,2.53
2023-03-12T14:47:12.388Z,2.43
2023-03-12T14:49:45.606Z,1.87
2023-03-12T14:52:15.039Z,2.47
2023-03-12T14:54:59.122Z,2.00
2023-03-12T14:57:26.215Z,1.70
2023-03-12T14:59:58.904Z,2.27
2023-03-12T15:02:28.704Z,2.50
2023-03-12T15:04:58.516Z,1.70
2023-03-12T15:07:41.718Z,1.77
2023-03-12T15:10:28.512Z,2.20
2023-03-12T15:12:58.117Z,2.00
2023-03-12T15:15:41.866Z,1.90
2023-03-12T15:18:32.845Z,2.70
2023-03-12T15:21:02.634Z,1.33
2023-03-12T15:23:33.031Z,2.17
2023-03-12T15:26:21.839Z,2.43
2023-03-12T15:29:01.935Z,1.37
2023-03-12T15:31:49.920Z,1.77
2023-03-12T15:34:34.931Z,2.70
2023-03-12T15:37:20.228Z,1.80
2023-03-12T15:39:53.290Z,2.27
2023-03-12T15:42:24.698Z,2.87
2023-03-12T15:45:03.281Z,2.10
2023-03-12T15:47:34.009Z,1.53
2023-03-12T15:50:17.127Z,3.60
2023-03-12T15:53:07.801Z,2.67
2023-03-12T15:55:36.099Z,1.93
2023-03-12T15:58:22.488Z,2.50
2023-03-12T16:00:49.465Z,2.03
2023-03-12T16:03:22.025Z,1.90
2023-03-12T16:05:52.110Z,3.00
2023-03-12T16:08:29.323Z,3.00
2023-03-12T16:10:56.724Z,1.90
2023-03-12T16:13:31.158Z,1.70
2023-03-12T16:15:58.742Z,1.97
2023-03-12T16:18:25.931Z,1.50
2023-03-12T16:20:53.718Z,1.47
2023-03-12T16:23:20.797Z,3.57
2023-03-12T16:25:51.880Z,2.60
2023-03-12T16:28:22.325Z,2.70
2023-03-12T16:30:50.308Z,2.40
2023-03-12T16:33:21.504Z,2.03
2023-03-12T16:35:48.973Z,2.90
2023-03-12T16:38:16.505Z,2.40
2023-03-12T16:40:47.496Z,2.00
2023-03-12T16:43:24.593Z,2.00
2023-03-12T16:45:54.037Z,2.70
2023-03-12T16:48:24.259Z,2.33
2023-03-12T16:50:54.909Z,2.00
2023-03-12T16:53:23.226Z,3.33
2023-03-12T16:55:56.583Z,2.90
2023-03-12T16:58:25.556Z,2.97
2023-03-12T17:00:54.277Z,3.17
2023-03-12T17:03:42.172Z,2.53
2023-03-12T17:06:17.546Z,2.70
2023-03-12T17:08:45.457Z,2.77
2023-03-12T17:11:34.951Z,3.47
2023-03-12T17:14:19.282Z,2.10
2023-03-12T17:16:46.281Z,3.10
2023-03-12T17:19:13.420Z,2.13
2023-03-12T17:21:40.980Z,3.07
2023-03-12T17:24:08.332Z,2.97
2023-03-12T17:26:35.354Z,2.73
2023-03-12T17:29:02.324Z,2.70
2023-03-12T17:31:29.367Z,2.90
2023-03-12T17:33:56.382Z,3.00
2023-03-12T17:36:23.442Z,3.77
2023-03-12T17:38:51.013Z,2.30
2023-03-12T17:41:26.528Z,2.83
2023-03-12T17:43:54.913Z,3.27
2023-03-12T17:46:22.170Z,3.47
2023-03-12T17:48:49.212Z,3.83
2023-03-12T17:51:16.896Z,3.30
2023-03-12T17:53:44.021Z,3.87
2023-03-12T17:56:12.534Z,3.37
2023-03-12T17:58:39.711Z,3.40
2023-03-12T18:01:07.393Z,2.77
2023-03-12T18:03:34.352Z,3.00
2023-03-12T18:06:01.620Z,3.00
2023-03-12T18:08:28.940Z,4.30
2023-03-12T18:10:56.111Z,4.10
2023-03-12T18:13:23.135Z,3.07
2023-03-12T18:15:55.880Z,3.80
2023-03-12T18:18:25.476Z,4.17
2023-03-12T18:20:53.289Z,3.60
2023-03-12T18:23:20.655Z,3.57
2023-03-12T18:25:47.667Z,4.40
2023-03-12T18:28:15.352Z,5.73
2023-03-12T18:30:45.776Z,3.73
2023-03-12T18:33:13.783Z,3.47
2023-03-12T18:35:40.826Z,3.30
2023-03-12T18:38:07.827Z,3.43
2023-03-12T18:40:35.118Z,3.40
2023-03-12T18:43:02.926Z,2.73
2023-03-12T18:45:30.361Z,2.80
2023-03-12T18:47:57.427Z,4.23
2023-03-12T18:50:24.929Z,3.47
2023-03-12T18:52:51.962Z,3.30
2023-03-12T18:55:18.924Z,3.80
2023-03-12T18:57:47.603Z,3.80
2023-03-12T19:00:19.562Z,4.23
2023-03-12T19:02:48.184Z,5.23
2023-03-12T19:05:16.287Z,2.90
2023-03-12T19:07:43.682Z,4.43
2023-03-12T19:10:12.351Z,3.23
2023-03-12T19:12:51.535Z,4.17
2023-03-12T19:15:26.271Z,3.27
2023-03-12T19:17:54.072Z,4.67
2023-03-12T19:20:21.550Z,3.20
2023-03-12T19:22:48.576Z,4.27
2023-03-12T19:25:15.884Z,2.87
2023-03-12T19:27:42.935Z,3.80
2023-03-12T19:30:10.864Z,4.23
2023-03-12T19:32:43.796Z,3.00
2023-03-12T19:35:13.815Z,2.53
2023-03-12T19:37:42.157Z,2.00
2023-03-12T19:40:10.793Z,2.97
2023-03-12T19:42:37.853Z,2.40
2023-03-12T19:45:05.418Z,1.83
2023-03-12T19:47:33.489Z,3.60
2023-03-12T19:50:00.949Z,2.83
2023-03-12T19:52:28.040Z,1.90
2023-03-12T19:55:04.213Z,2.87
2023-03-12T19:57:34.505Z,2.10
2023-03-12T20:00:01.493Z,1.70
2023-03-12T20:02:31.438Z,1.53
2023-03-12T20:04:58.445Z,2.00
2023-03-12T20:07:25.754Z,3.17
2023-03-12T20:09:52.780Z,2.70
2023-03-12T20:12:19.815Z,2.17
2023-03-12T20:14:47.255Z,3.40
2023-03-12T20:17:14.437Z,2.47
2023-03-12T20:19:42.577Z,2.33
2023-03-12T20:22:09.508Z,3.53
2023-03-12T20:24:36.495Z,1.73
2023-03-12T20:27:03.936Z,2.33
2023-03-12T20:29:31.001Z,1.53
2023-03-12T20:31:58.097Z,2.00
2023-03-12T20:34:25.291Z,2.43
2023-03-12T20:36:52.356Z,2.10
2023-03-12T20:39:19.485Z,5.13
2023-03-12T20:41:46.447Z,1.47
2023-03-12T20:44:13.530Z,2.20
2023-03-12T20:46:40.492Z,2.10
2023-03-12T20:49:07.721Z,2.17
2023-03-12T20:51:34.718Z,2.10
2023-03-12T20:54:01.744Z,2.10
2023-03-12T20:56:28.777Z,1.60
2023-03-12T20:58:55.887Z,2.57
2023-03-12T21:01:22.857Z,2.30
2023-03-12T21:03:49.869Z,2.27
2023-03-12T21:06:17.001Z,2.30
2023-03-12T21:08:43.973Z,1.60
2023-03-12T21:11:10.956Z,2.17
2023-03-12T21:13:37.996Z,1.73
2023-03-12T21:16:06.969Z,2.13
2023-03-12T21:18:34.075Z,2.17
2023-03-12T21:21:03.658Z,3.00
2023-03-12T21:23:31.760Z,1.57
2023-03-12T21:26:07.122Z,2.00
2023-03-12T21:28:35.659Z,2.47
2023-03-12T21:31:12.609Z,2.50
2023-03-12T21:33:40.086Z,2.10
2023-03-12T21:36:10.714Z,3.13
2023-03-12T21:38:39.046Z,2.30
2023-03-12T21:41:09.132Z,2.50
2023-03-12T21:43:36.488Z,2.50
2023-03-12T21:46:16.399Z,1.80
2023-03-12T21:48:45.872Z,2.23
2023-03-12T21:51:15.618Z,2.57
2023-03-12T21:53:42.834Z,2.90
2023-03-12T21:56:10.949Z,3.13
2023-03-12T21:58:37.980Z,2.43
2023-03-12T22:01:11.726Z,2.37
2023-03-12T22:03:40.539Z,2.03
2023-03-12T22:06:08.466Z,3.27
2023-03-12T22:08:35.902Z,1.97
2023-03-12T22:11:03.803Z,2.90
2023-03-12T22:13:30.845Z,2.97
2023-03-12T22:16:00.860Z,2.10
2023-03-12T22:18:29.355Z,3.53
2023-03-12T22:21:03.166Z,3.10
2023-03-12T22:23:30.262Z,1.83
2023-03-12T22:26:05.151Z,1.90
2023-03-12T22:28:32.867Z,1.83
2023-03-12T22:31:05.995Z,2.63
2023-03-12T22:33:36.779Z,2.00
2023-03-12T22:36:09.694Z,2.80
2023-03-12T22:38:38.010Z,4.40
2023-03-12T22:41:31.593Z,1.80
2023-03-12T22:44:04.999Z,2.33
2023-03-12T22:46:32.409Z,2.63
2023-03-12T22:49:02.259Z,2.80
2023-03-12T22:51:32.133Z,2.97
2023-03-12T22:53:59.479Z,2.80
2023-03-12T22:56:26.692Z,2.90
2023-03-12T22:58:55.373Z,3.20
2023-03-12T23:01:23.265Z,4.70
2023-03-12T23:03:51.407Z,2.50
2023-03-12T23:06:25.130Z,2.90
2023-03-12T23:08:55.061Z,3.53
2023-03-12T23:11:25.159Z,2.60
2023-03-12T23:13:53.251Z,3.10
2023-03-12T23:16:23.596Z,3.07
2023-03-12T23:18:51.116Z,3.53
2023-03-12T23:21:21.934Z,2.80
2023-03-12T23:23:50.016Z,3.30
2023-03-12T23:26:24.494Z,3.40
2023-03-12T23:28:53.386Z,2.63
2023-03-12T23:31:21.172Z,3.17
2023-03-12T23:33:48.149Z,2.97
2023-03-12T23:36:18.818Z,2.30
2023-03-12T23:38:46.998Z,2.50
2023-03-12T23:41:17.839Z,2.83
2023-03-12T23:43:45.678Z,2.83
2023-03-12T23:46:14.534Z,2.63
2023-03-12T23:48:41.577Z,2.90
2023-03-12T23:51:14.498Z,4.13
2023-03-12T23:53:44.122Z,3.20
2023-03-12T23:56:16.326Z,3.57
2023-03-12T23:58:44.816Z,2.60
